Bw Prince — LADQ7 — position and weather

sailwx.info

Track history (hours):
 
Tides and Currents Weather Stations Pressure Air Temp Water Temp Dewpoint Dewpoint Depression Visibility Wind Speed Wind Dir Waves Ship Positions

Bw Prince

Last reported at 2014-Jul-14 21:34 UTC. Time now 2014-Jul-24 15:21 UTC.
Position N 29°25' W 094°50'.
Warning: this ship's position is 9 days out of date.

Length 225 m; draft 7.6 m.

Type: Tanker. MMSI: 259708000.

Date/timePositionNaut miles runAvg speedWind from/ knotsBaromVisibWave heightAir tempDewpointWater temp
2014-Jul-14 21:34N 29°25' W 094°50'1111.1
2014-Jul-14 20:34N 29°35' W 094°56'10 9.8
2014-Jul-14 19:34N 29°43' W 095°01'6 5.7
2014-Jul-14 18:33N 29°44' W 095°08'0 0.1
2014-Jul-14 17:26N 29°44' W 095°08'0 0.0
2014-Jul-14 16:32N 29°44' W 095°08'0 0.0
2014-Jul-14 15:32N 29°44' W 095°08'0 0.0
2014-Jul-14 14:32N 29°44' W 095°08'0 0.0
2014-Jul-14 13:32N 29°44' W 095°08'0 0.0
2014-Jul-14 12:32N 29°44' W 095°08'0 0.0
2014-Jul-14 11:32N 29°44' W 095°08'0 0.0
2014-Jul-14 10:32N 29°44' W 095°08'0 0.0
2014-Jul-14 09:26N 29°44' W 095°08'0 0.0
2014-Jul-14 08:32N 29°44' W 095°08'0 0.0
2014-Jul-14 07:32N 29°44' W 095°08'0 0.0
2014-Jul-14 06:29N 29°44' W 095°08'0 0.0
2014-Jul-14 04:20N 29°44' W 095°08'0 0.0
2014-Jul-14 03:32N 29°44' W 095°08'0 0.0
2014-Jul-14 02:29N 29°44' W 095°08'0 0.0
2014-Jul-14 01:29N 29°44' W 095°08'0 0.0
2014-Jul-14 00:32N 29°44' W 095°08'0 0.0
2014-Jul-13 23:32N 29°44' W 095°08'0 0.0
2014-Jul-13 22:29N 29°44' W 095°08'0 0.0
2014-Jul-13 21:32N 29°44' W 095°08'0 0.0
2014-Jul-13 20:32N 29°44' W 095°08'0 0.0
2014-Jul-13 19:32N 29°44' W 095°08'0 0.0
2014-Jul-13 18:32N 29°44' W 095°08'0 0.0
2014-Jul-13 17:32N 29°44' W 095°08'0 0.0
2014-Jul-13 16:32N 29°44' W 095°08'0 0.0
2014-Jul-13 15:29N 29°44' W 095°08'0 0.0
2014-Jul-13 14:29N 29°44' W 095°08'0 0.0
2014-Jul-13 13:29N 29°44' W 095°08'0 0.0
2014-Jul-13 12:32N 29°44' W 095°08'0 0.0
2014-Jul-13 11:29N 29°44' W 095°08'0 0.0
2014-Jul-13 10:32N 29°44' W 095°08'0 0.0
2014-Jul-13 09:32N 29°44' W 095°08'0 0.0
2014-Jul-13 08:32N 29°44' W 095°08'0 0.0
2014-Jul-13 07:32N 29°44' W 095°08'0 0.0
2014-Jul-13 06:32N 29°44' W 095°08'0 0.0
2014-Jul-13 05:32N 29°44' W 095°08'0 0.0
2014-Jul-13 04:29N 29°44' W 095°08'0 0.0
2014-Jul-13 03:32N 29°44' W 095°08'0 0.0
2014-Jul-13 02:29N 29°44' W 095°08'0 0.0
2014-Jul-13 01:32N 29°44' W 095°08'0 0.0
2014-Jul-13 00:29N 29°44' W 095°08'0 0.0
2014-Jul-12 23:32N 29°44' W 095°08'0 0.0
2014-Jul-12 22:32N 29°44' W 095°08'0 0.0
2014-Jul-12 21:29N 29°44' W 095°08'0 0.0
2014-Jul-12 20:32N 29°44' W 095°08'0 0.0
2014-Jul-12 19:26N 29°44' W 095°08'0 0.0
2014-Jul-12 18:32N 29°44' W 095°08'0 0.0
2014-Jul-12 17:32N 29°44' W 095°08'0 0.0
2014-Jul-12 16:32N 29°44' W 095°08'0 0.0
2014-Jul-12 15:29N 29°44' W 095°08'0 0.0
2014-Jul-12 14:32N 29°44' W 095°08'0 0.0
2014-Jul-12 13:32N 29°44' W 095°08'2 2.1
2014-Jul-12 12:33N 29°45' W 095°06'6 5.8
2014-Jul-12 11:33N 29°42' W 095°00'1 1.3
2014-Jul-12 10:33N 29°41' W 094°59'0 0.0
2014-Jul-11 14:13N 29°41' W 094°59'0 0.0
2014-Jul-11 11:25N 29°41' W 094°59'0 0.0
2014-Jul-11 07:25N 29°41' W 094°59'0 0.0
2014-Jul-11 06:19N 29°41' W 094°59'0 0.0
2014-Jul-11 03:28N 29°41' W 094°59'0 0.0
2014-Jul-11 01:13N 29°41' W 094°59'0 0.0
2014-Jul-10 23:31N 29°41' W 094°59'0 0.0
2014-Jul-10 22:31N 29°41' W 094°59'0 0.0
2014-Jul-10 20:10N 29°41' W 094°59'0 0.0
2014-Jul-10 19:31N 29°41' W 094°59'0 0.0
2014-Jul-10 17:25N 29°41' W 094°59'0 0.0
2014-Jul-10 16:31N 29°41' W 094°59'0 0.0
2014-Jul-10 15:31N 29°41' W 094°59'0 0.0
2014-Jul-10 13:22N 29°41' W 094°59'0 0.0
2014-Jul-10 12:33N 29°41' W 094°59'1 1.5
2014-Jul-10 11:33N 29°40' W 094°58'1313.1
2014-Jul-10 10:33N 29°28' W 094°51'  
Track history (hours):
 
Tides and Currents Weather Stations Pressure Air Temp Water Temp Dewpoint Dewpoint Depression Visibility Wind Speed Wind Dir Waves Ship Positions

Bw Prince

Last reported at 2014-Jul-14 21:34 UTC. Time now 2014-Jul-24 15:21 UTC.
Position N 29°25' W 094°50'.
Warning: this ship's position is 9 days out of date.

Length 225 m; draft 7.6 m.

Type: Tanker. MMSI: 259708000.

Date/timePositionNaut miles runAvg speedWind from/ knotsBaromVisibWave heightAir tempDewpointWater temp
2014-Jul-14 21:34N 29°25' W 094°50'1111.1
2014-Jul-14 20:34N 29°35' W 094°56'10 9.8
2014-Jul-14 19:34N 29°43' W 095°01'6 5.7
2014-Jul-14 18:33N 29°44' W 095°08'0 0.1
2014-Jul-14 17:26N 29°44' W 095°08'0 0.0
2014-Jul-14 16:32N 29°44' W 095°08'0 0.0
2014-Jul-14 15:32N 29°44' W 095°08'0 0.0
2014-Jul-14 14:32N 29°44' W 095°08'0 0.0
2014-Jul-14 13:32N 29°44' W 095°08'0 0.0
2014-Jul-14 12:32N 29°44' W 095°08'0 0.0
2014-Jul-14 11:32N 29°44' W 095°08'0 0.0
2014-Jul-14 10:32N 29°44' W 095°08'0 0.0
2014-Jul-14 09:26N 29°44' W 095°08'0 0.0
2014-Jul-14 08:32N 29°44' W 095°08'0 0.0
2014-Jul-14 07:32N 29°44' W 095°08'0 0.0
2014-Jul-14 06:29N 29°44' W 095°08'0 0.0
2014-Jul-14 04:20N 29°44' W 095°08'0 0.0
2014-Jul-14 03:32N 29°44' W 095°08'0 0.0
2014-Jul-14 02:29N 29°44' W 095°08'0 0.0
2014-Jul-14 01:29N 29°44' W 095°08'0 0.0
2014-Jul-14 00:32N 29°44' W 095°08'0 0.0
2014-Jul-13 23:32N 29°44' W 095°08'0 0.0
2014-Jul-13 22:29N 29°44' W 095°08'0 0.0
2014-Jul-13 21:32N 29°44' W 095°08'0 0.0
2014-Jul-13 20:32N 29°44' W 095°08'0 0.0
2014-Jul-13 19:32N 29°44' W 095°08'0 0.0
2014-Jul-13 18:32N 29°44' W 095°08'0 0.0
2014-Jul-13 17:32N 29°44' W 095°08'0 0.0
2014-Jul-13 16:32N 29°44' W 095°08'0 0.0
2014-Jul-13 15:29N 29°44' W 095°08'0 0.0
2014-Jul-13 14:29N 29°44' W 095°08'0 0.0
2014-Jul-13 13:29N 29°44' W 095°08'0 0.0
2014-Jul-13 12:32N 29°44' W 095°08'0 0.0
2014-Jul-13 11:29N 29°44' W 095°08'0 0.0
2014-Jul-13 10:32N 29°44' W 095°08'0 0.0
2014-Jul-13 09:32N 29°44' W 095°08'0 0.0
2014-Jul-13 08:32N 29°44' W 095°08'0 0.0
2014-Jul-13 07:32N 29°44' W 095°08'0 0.0
2014-Jul-13 06:32N 29°44' W 095°08'0 0.0
2014-Jul-13 05:32N 29°44' W 095°08'0 0.0
2014-Jul-13 04:29N 29°44' W 095°08'0 0.0
2014-Jul-13 03:32N 29°44' W 095°08'0 0.0
2014-Jul-13 02:29N 29°44' W 095°08'0 0.0
2014-Jul-13 01:32N 29°44' W 095°08'0 0.0
2014-Jul-13 00:29N 29°44' W 095°08'0 0.0
2014-Jul-12 23:32N 29°44' W 095°08'0 0.0
2014-Jul-12 22:32N 29°44' W 095°08'0 0.0
2014-Jul-12 21:29N 29°44' W 095°08'0 0.0
2014-Jul-12 20:32N 29°44' W 095°08'0 0.0
2014-Jul-12 19:26N 29°44' W 095°08'0 0.0
2014-Jul-12 18:32N 29°44' W 095°08'0 0.0
2014-Jul-12 17:32N 29°44' W 095°08'0 0.0
2014-Jul-12 16:32N 29°44' W 095°08'0 0.0
2014-Jul-12 15:29N 29°44' W 095°08'0 0.0
2014-Jul-12 14:32N 29°44' W 095°08'0 0.0
2014-Jul-12 13:32N 29°44' W 095°08'2 2.1
2014-Jul-12 12:33N 29°45' W 095°06'6 5.8
2014-Jul-12 11:33N 29°42' W 095°00'1 1.3
2014-Jul-12 10:33N 29°41' W 094°59'0 0.0
2014-Jul-11 14:13N 29°41' W 094°59'0 0.0
2014-Jul-11 11:25N 29°41' W 094°59'0 0.0
2014-Jul-11 07:25N 29°41' W 094°59'0 0.0
2014-Jul-11 06:19N 29°41' W 094°59'0 0.0
2014-Jul-11 03:28N 29°41' W 094°59'0 0.0
2014-Jul-11 01:13N 29°41' W 094°59'0 0.0
2014-Jul-10 23:31N 29°41' W 094°59'0 0.0
2014-Jul-10 22:31N 29°41' W 094°59'0 0.0
2014-Jul-10 20:10N 29°41' W 094°59'0 0.0
2014-Jul-10 19:31N 29°41' W 094°59'0 0.0
2014-Jul-10 17:25N 29°41' W 094°59'0 0.0
2014-Jul-10 16:31N 29°41' W 094°59'0 0.0
2014-Jul-10 15:31N 29°41' W 094°59'0 0.0
2014-Jul-10 13:22N 29°41' W 094°59'0 0.0
2014-Jul-10 12:33N 29°41' W 094°59'1 1.5
2014-Jul-10 11:33N 29°40' W 094°58'1313.1
2014-Jul-10 10:33N 29°28' W 094°51'  

Dump ship's entire track history